Time;durP1;ratioP1;P1;durP2;ratioP2;P2;SDS_P1;SDS_P2;PMS_P1;PMS_P2;Temp;Humidity;BMP_temperature;BMP_pressure;BME280_temperature;BME280_humidity;BME280_pressure;Samples;Min_cycle;Max_cycle;Signal;HPM_P1;HPM_P2
2021/06/04 00:01:28;;;;;;;1.58;0.90;;;;;;;29.42;35.43;97033.38;4971845;28;20053;-34
2021/06/04 00:03:53;;;;;;;1.05;0.82;;;;;;;29.42;35.47;97036.00;4968608;28;20149;-40
2021/06/04 00:06:19;;;;;;;1.05;0.90;;;;;;;29.42;35.32;97035.16;4960351;28;20505;-38
2021/06/04 00:08:46;;;;;;;1.10;1.00;;;;;;;29.42;35.42;97038.66;4969335;28;20105;-40
2021/06/04 00:11:28;;;;;;;0.82;0.80;;;;;;;29.42;35.55;97036.00;4957674;28;20029;-38
2021/06/04 00:13:56;;;;;;;1.65;1.00;;;;;;;29.42;35.30;97040.44;4975545;28;20026;-35
2021/06/04 00:16:43;;;;;;;1.05;0.80;;;;;;;29.42;35.25;97038.66;4971739;28;20034;-34
2021/06/04 00:19:11;;;;;;;2.08;0.75;;;;;;;29.42;35.23;97040.44;4971696;28;20077;-34
2021/06/04 00:21:39;;;;;;;0.82;0.65;;;;;;;29.41;35.24;97039.56;4971998;28;20121;-32
2021/06/04 00:24:05;;;;;;;2.10;1.20;;;;;;;29.42;35.37;97036.00;4972635;28;20030;-38
2021/06/04 00:26:31;;;;;;;1.90;1.02;;;;;;;29.42;35.37;97036.00;4976159;28;20041;-35
2021/06/04 00:28:56;;;;;;;1.50;1.13;;;;;;;29.42;35.36;97036.00;4979300;28;20165;-38
2021/06/04 00:31:22;;;;;;;2.70;1.20;;;;;;;29.41;35.14;97034.28;4985187;28;20105;-36
2021/06/04 00:33:48;;;;;;;0.93;0.70;;;;;;;29.42;35.17;97035.16;4957458;28;20712;-33
2021/06/04 00:36:14;;;;;;;2.15;0.98;;;;;;;29.42;35.12;97030.72;4969908;28;20099;-35
2021/06/04 00:38:39;;;;;;;1.20;1.00;;;;;;;29.43;35.17;97031.56;4978538;28;20037;-35
2021/06/04 00:41:07;;;;;;;1.27;0.90;;;;;;;29.42;35.23;97030.72;4974596;28;20042;-35
2021/06/04 00:43:33;;;;;;;1.65;1.13;;;;;;;29.42;35.17;97030.72;4973975;28;20034;-35
2021/06/04 00:46:00;;;;;;;0.82;0.82;;;;;;;29.42;35.22;97030.72;4972824;28;20022;-39
2021/06/04 00:48:27;;;;;;;1.65;0.90;;;;;;;29.43;35.24;97026.28;4972825;28;20030;-37
2021/06/04 00:50:58;;;;;;;1.67;1.00;;;;;;;29.43;35.03;97032.41;4970518;28;20033;-40
2021/06/04 00:53:24;;;;;;;1.45;0.73;;;;;;;29.42;34.89;97022.81;4973024;28;20034;-36
2021/06/04 00:55:49;;;;;;;1.30;1.00;;;;;;;29.42;35.04;97022.81;4954894;28;20033;-32
2021/06/04 00:58:17;;;;;;;0.98;0.70;;;;;;;29.43;35.06;97028.91;4970254;28;20038;-31
2021/06/04 01:00:44;;;;;;;1.15;0.88;;;;;;;29.43;35.24;97029.78;4960622;28;20133;-40
2021/06/04 01:03:10;;;;;;;1.33;0.90;;;;;;;29.43;35.17;97026.28;4968823;28;20061;-31
2021/06/04 01:05:37;;;;;;;1.23;0.70;;;;;;;29.44;34.93;97020.91;4972551;28;20034;-35
2021/06/04 01:08:19;;;;;;;1.67;0.95;;;;;;;29.43;34.89;97029.78;4968946;28;20113;-34
2021/06/04 01:11:06;;;;;;;1.08;0.80;;;;;;;29.44;34.91;97022.69;4968749;28;20449;-32
2021/06/04 01:14:12;;;;;;;0.90;0.70;;;;;;;29.43;34.98;97027.13;4969315;28;20044;-37
2021/06/04 01:17:01;;;;;;;1.15;0.90;;;;;;;29.43;35.02;97024.50;4933844;28;20046;-35
2021/06/04 01:19:42;;;;;;;0.70;0.70;;;;;;;29.44;35.00;97033.25;4952931;28;20036;-37
2021/06/04 01:22:09;;;;;;;1.10;0.80;;;;;;;29.44;35.04;97027.97;4973963;28;20420;-33
2021/06/04 01:24:59;;;;;;;0.90;0.77;;;;;;;29.43;35.08;97021.84;4973029;28;20516;-35
2021/06/04 01:27:32;;;;;;;1.45;0.80;;;;;;;29.44;34.92;97034.09;4975587;28;20030;-35
2021/06/04 01:30:20;;;;;;;0.70;0.70;;;;;;;29.43;34.93;97032.41;4955243;28;20034;-33
2021/06/04 01:32:46;;;;;;;0.80;0.80;;;;;;;29.42;34.78;97022.81;4956746;28;20046;-36
2021/06/04 01:35:20;;;;;;;0.50;0.50;;;;;;;29.42;34.94;97025.44;4951399;28;20586;-35
2021/06/04 01:37:46;;;;;;;1.15;0.80;;;;;;;29.42;34.97;97025.44;4968738;28;20111;-37
2021/06/04 01:40:11;;;;;;;0.65;0.65;;;;;;;29.43;34.78;97026.28;4955917;28;20025;-33
2021/06/04 01:42:38;;;;;;;1.55;0.80;;;;;;;29.43;34.81;97031.56;4970946;28;20921;-34
2021/06/04 01:45:12;;;;;;;1.67;0.70;;;;;;;29.42;34.93;97029.88;4986063;28;20026;-37
2021/06/04 01:47:50;;;;;;;0.93;0.80;;;;;;;29.42;34.77;97025.44;4961495;28;20030;-36
2021/06/04 01:50:27;;;;;;;2.25;0.70;;;;;;;29.42;34.87;97030.72;4970151;28;20460;-39
2021/06/04 01:52:53;;;;;;;1.17;0.60;;;;;;;29.42;34.85;97030.72;4975251;28;20627;-34
2021/06/04 01:55:29;;;;;;;1.27;0.80;;;;;;;29.42;34.94;97030.72;4937893;28;20026;-38
2021/06/04 01:58:07;;;;;;;1.15;0.70;;;;;;;29.42;34.93;97033.38;4955208;28;20034;-37
2021/06/04 02:00:34;;;;;;;3.67;0.90;;;;;;;29.42;34.83;97030.72;4951565;28;20038;-34
2021/06/04 02:03:00;;;;;;;1.77;0.80;;;;;;;29.42;35.04;97030.72;4970621;28;20757;-37
2021/06/04 02:05:30;;;;;;;0.73;0.73;;;;;;;29.41;34.64;97023.72;4968790;28;20054;-34
2021/06/04 02:07:56;;;;;;;0.77;0.77;;;;;;;29.43;34.77;97026.28;4963518;28;21345;-40
2021/06/04 02:10:33;;;;;;;0.82;0.63;;;;;;;29.42;34.68;97025.44;4970750;28;20038;-34
2021/06/04 02:12:58;;;;;;;0.80;0.60;;;;;;;29.43;34.66;97032.41;4969134;28;20096;-35
2021/06/04 02:15:29;;;;;;;1.05;0.70;;;;;;;29.43;34.66;97032.41;4969671;28;20057;-41
2021/06/04 02:18:16;;;;;;;1.42;0.90;;;;;;;29.44;34.69;97034.09;4969633;28;21037;-37
2021/06/04 02:20:45;;;;;;;0.77;0.70;;;;;;;29.44;34.80;97039.38;4973823;28;20635;-37
2021/06/04 02:23:21;;;;;;;1.27;0.75;;;;;;;29.43;34.72;97034.19;4984764;28;20025;-41
2021/06/04 02:26:20;;;;;;;1.60;0.60;;;;;;;29.40;34.75;97026.50;4971074;28;20045;-37
2021/06/04 02:29:11;;;;;;;0.88;0.50;;;;;;;29.44;34.81;97031.47;4967647;28;20037;-40
2021/06/04 02:31:48;;;;;;;0.73;0.70;;;;;;;29.43;34.69;97037.69;4970116;28;20046;-35
2021/06/04 02:34:39;;;;;;;0.73;0.70;;;;;;;29.42;34.79;97035.16;4949138;28;20041;-35
2021/06/04 02:37:37;;;;;;;1.85;0.93;;;;;;;29.42;34.81;97024.59;4959928;28;20445;-37
2021/06/04 02:40:08;;;;;;;1.08;0.68;;;;;;;29.42;34.73;97032.50;4965565;28;20510;-36
2021/06/04 02:42:41;;;;;;;;;;;;;;;29.41;34.71;97022.91;4967793;28;20031;-36
2021/06/04 02:45:22;;;;;;;1.52;1.00;;;;;;;29.40;34.50;97026.50;4967676;28;19922;-38
2021/06/04 02:47:51;;;;;;;0.77;0.77;;;;;;;29.39;34.59;97017.72;4966457;28;20127;-35
2021/06/04 02:50:28;;;;;;;1.10;0.63;;;;;;;29.40;34.58;97021.22;4968448;28;21061;-37
2021/06/04 02:52:53;;;;;;;0.77;0.70;;;;;;;29.39;34.77;97020.34;4968934;28;20125;-36
2021/06/04 02:55:25;;;;;;;0.82;0.60;;;;;;;29.40;34.58;97021.22;4966281;28;20033;-37
2021/06/04 02:57:51;;;;;;;0.50;0.50;;;;;;;29.39;34.73;97025.63;4952197;28;20963;-33
2021/06/04 03:00:19;;;;;;;1.00;0.75;;;;;;;29.39;34.67;97025.63;4965057;28;20034;-36
2021/06/04 03:02:45;;;;;;;0.70;0.70;;;;;;;29.40;34.52;97031.78;4964984;28;20031;-37
2021/06/04 03:05:17;;;;;;;0.50;0.50;;;;;;;29.39;34.58;97025.63;4967546;28;20034;-37
2021/06/04 03:07:42;;;;;;;1.35;0.70;;;;;;;29.40;34.55;97031.78;4969119;28;20038;-40
2021/06/04 03:10:31;;;;;;;0.82;0.63;;;;;;;29.40;34.64;97029.97;4964748;28;20045;-35
2021/06/04 03:12:57;;;;;;;0.55;0.55;;;;;;;29.41;34.76;97033.47;4967335;28;20030;-37
2021/06/04 03:15:54;;;;;;;0.82;0.70;;;;;;;29.37;34.47;97030.16;4968658;28;20045;-34
2021/06/04 03:18:43;;;;;;;0.60;0.60;;;;;;;29.40;34.59;97037.88;4958630;28;20045;-35
2021/06/04 03:21:16;;;;;;;1.02;0.60;;;;;;;29.41;34.44;97038.75;4967130;28;20045;-33
2021/06/04 03:23:41;;;;;;;0.50;0.40;;;;;;;29.40;34.39;97032.59;4971255;28;20033;-39
2021/06/04 03:26:13;;;;;;;0.50;0.50;;;;;;;29.39;34.42;97036.19;4971699;28;20034;-34
2021/06/04 03:28:38;;;;;;;0.68;0.63;;;;;;;29.39;34.67;97036.19;4967237;28;20034;-36
2021/06/04 03:31:05;;;;;;;0.45;0.40;;;;;;;29.40;34.51;97035.25;4965105;28;20859;-38
2021/06/04 03:33:33;;;;;;;0.80;0.68;;;;;;;29.39;34.65;97036.19;4969865;28;20129;-35
2021/06/04 03:35:59;;;;;;;0.98;0.68;;;;;;;29.40;34.40;97043.16;4968192;28;20136;-33
2021/06/04 03:38:24;;;;;;;0.60;0.60;;;;;;;29.40;34.49;97034.41;4970369;28;20741;-35
2021/06/04 03:40:49;;;;;;;2.30;0.80;;;;;;;29.40;34.52;97043.16;4970695;28;20432;-35
2021/06/04 03:43:16;;;;;;;1.23;0.70;;;;;;;29.39;34.58;97044.13;4970149;28;20051;-37
2021/06/04 03:45:42;;;;;;;1.17;0.50;;;;;;;29.40;34.65;97050.25;4976098;28;20553;-34
2021/06/04 03:48:09;;;;;;;0.75;0.60;;;;;;;29.41;34.48;97049.31;4977089;28;20580;-34
2021/06/04 03:50:35;;;;;;;0.52;0.50;;;;;;;29.41;34.50;97050.13;4978939;28;20511;-36
2021/06/04 03:53:01;;;;;;;0.80;0.60;;;;;;;29.40;34.51;97045.81;4979752;28;20026;-37
2021/06/04 03:55:26;;;;;;;1.05;0.60;;;;;;;29.39;34.58;97051.19;4979836;28;20595;-36
2021/06/04 03:57:52;;;;;;;0.68;0.57;;;;;;;29.40;34.49;97053.72;4973708;28;20053;-36
2021/06/04 04:00:46;;;;;;;0.50;0.50;;;;;;;29.40;34.58;97056.38;4981153;28;20117;-40
2021/06/04 04:03:14;;;;;;;0.85;0.60;;;;;;;29.40;34.59;97053.72;4968789;28;20141;-39
2021/06/04 04:05:39;;;;;;;0.60;0.55;;;;;;;29.40;34.50;97058.19;4976890;28;20655;-36
2021/06/04 04:08:05;;;;;;;0.43;0.43;;;;;;;29.41;34.46;97055.41;4970578;28;20034;-38
2021/06/04 04:10:30;;;;;;;0.40;0.40;;;;;;;29.39;34.48;97062.59;4968987;28;20128;-36
2021/06/04 04:12:55;;;;;;;0.57;0.40;;;;;;;29.39;34.31;97062.59;4973976;28;20041;-40
2021/06/04 04:15:22;;;;;;;0.52;0.40;;;;;;;29.40;34.48;97071.38;4968423;28;20041;-38
2021/06/04 04:17:48;;;;;;;0.50;0.50;;;;;;;29.40;34.42;97069.56;4966653;28;20026;-37
2021/06/04 04:20:15;;;;;;;0.65;0.60;;;;;;;29.41;34.31;97065.16;4982136;28;20586;-32
2021/06/04 04:22:41;;;;;;;0.57;0.57;;;;;;;29.42;34.56;97072.09;4967647;28;20033;-39
2021/06/04 04:25:07;;;;;;;0.88;0.40;;;;;;;29.39;34.52;97075.78;4965694;28;20026;-37
2021/06/04 04:27:32;;;;;;;0.85;0.65;;;;;;;29.40;34.40;97088.03;4967447;28;20535;-33
2021/06/04 04:29:58;;;;;;;0.60;0.60;;;;;;;29.40;34.39;97079.28;4968540;28;20030;-42
2021/06/04 04:32:23;;;;;;;1.45;0.60;;;;;;;29.40;34.51;97088.03;4965264;28;20054;-38
2021/06/04 04:34:49;;;;;;;0.85;0.60;;;;;;;29.40;34.49;97093.31;4969899;28;20112;-38
2021/06/04 04:37:14;;;;;;;0.43;0.43;;;;;;;29.40;34.39;97090.69;4967110;28;20037;-34
2021/06/04 04:39:42;;;;;;;0.93;0.52;;;;;;;29.40;34.61;97095.97;4976940;28;20026;-38
2021/06/04 04:42:10;;;;;;;0.93;0.68;;;;;;;29.40;34.50;97095.13;4967443;28;20122;-34
2021/06/04 04:44:37;;;;;;;0.47;0.47;;;;;;;29.40;34.33;97095.13;4970722;28;20518;-38
2021/06/04 04:47:05;;;;;;;0.85;0.55;;;;;;;29.40;34.18;97095.13;4965822;28;20042;-32
2021/06/04 04:49:30;;;;;;;0.43;0.40;;;;;;;29.39;34.38;97102.19;4967445;28;20036;-38
2021/06/04 04:51:55;;;;;;;0.32;0.32;;;;;;;29.40;34.34;97106.53;4970525;28;20030;-35
2021/06/04 04:54:21;;;;;;;0.65;0.50;;;;;;;29.40;34.37;97111.81;4970178;28;21044;-37
2021/06/04 04:56:48;;;;;;;0.40;0.40;;;;;;;29.39;34.20;97094.28;4967595;28;20029;-39
2021/06/04 04:59:13;;;;;;;0.40;0.40;;;;;;;29.39;34.30;97089.00;4975126;28;20034;-37
2021/06/04 05:01:39;;;;;;;0.50;0.50;;;;;;;29.40;34.47;97089.84;4950732;28;20072;-34
2021/06/04 05:04:04;;;;;;;1.05;0.60;;;;;;;29.40;34.36;97095.97;4969379;28;20249;-35
2021/06/04 05:06:30;;;;;;;0.50;0.50;;;;;;;29.40;34.44;97101.25;4970625;28;20034;-34
2021/06/04 05:08:55;;;;;;;1.00;0.70;;;;;;;29.39;34.25;97096.06;4976685;28;20038;-34
2021/06/04 05:11:21;;;;;;;1.25;0.60;;;;;;;29.40;34.32;97100.41;4977063;28;20984;-33
2021/06/04 05:13:46;;;;;;;0.45;0.45;;;;;;;29.40;34.49;97095.13;4980168;28;20484;-35
2021/06/04 05:16:11;;;;;;;0.60;0.43;;;;;;;29.40;34.41;97095.97;4958237;28;20318;-37
2021/06/04 05:18:37;;;;;;;0.82;0.63;;;;;;;29.39;34.42;97096.91;4972779;28;20624;-38
2021/06/04 05:21:04;;;;;;;0.50;0.50;;;;;;;29.40;34.26;97093.31;4980021;28;20117;-36
2021/06/04 05:23:29;;;;;;;0.80;0.50;;;;;;;29.40;34.20;97098.59;4955500;28;20140;-33
2021/06/04 05:25:56;;;;;;;1.05;0.40;;;;;;;29.39;34.41;97096.91;4979199;28;20555;-36
2021/06/04 05:28:22;;;;;;;0.60;0.60;;;;;;;29.39;34.44;97090.78;4979300;28;20140;-36
2021/06/04 05:30:49;;;;;;;2.70;0.80;;;;;;;29.39;34.45;97094.28;4975271;28;20624;-35
2021/06/04 05:33:19;;;;;;;1.98;0.90;;;;;;;29.39;34.48;97093.41;4974719;28;20092;-38
2021/06/04 05:35:44;;;;;;;1.27;0.70;;;;;;;29.39;34.56;97098.69;4972275;28;20436;-31
2021/06/04 05:38:10;;;;;;;1.48;0.98;;;;;;;29.39;34.55;97091.63;4967090;28;20116;-33
2021/06/04 05:40:38;;;;;;;1.75;0.70;;;;;;;29.39;34.43;97089.00;4976009;28;20045;-39
2021/06/04 05:43:04;;;;;;;1.20;0.70;;;;;;;29.39;34.43;97088.13;4974589;28;20113;-36
2021/06/04 05:45:32;;;;;;;2.65;0.70;;;;;;;29.39;34.29;97089.00;4958466;28;20033;-40
2021/06/04 05:47:57;;;;;;;2.95;0.70;;;;;;;29.39;34.52;97090.78;4968962;28;20042;-36
2021/06/04 05:50:26;;;;;;;5.35;1.00;;;;;;;29.39;34.23;97088.13;4976544;28;20037;-37
2021/06/04 05:52:52;;;;;;;0.60;0.60;;;;;;;29.38;34.31;97087.31;4976839;28;20115;-37
2021/06/04 05:55:20;;;;;;;1.90;0.95;;;;;;;29.40;34.37;97089.84;4959445;28;20121;-35
2021/06/04 05:57:45;;;;;;;0.70;0.65;;;;;;;29.36;34.31;97083.91;4976345;28;21055;-39
2021/06/04 06:00:23;;;;;;;1.98;0.70;;;;;;;29.40;34.40;97095.97;4976225;28;20037;-36
2021/06/04 06:02:49;;;;;;;2.42;0.90;;;;;;;29.40;33.94;97098.59;4976731;28;20069;-37
2021/06/04 06:05:15;;;;;;;1.70;0.95;;;;;;;29.40;34.42;97095.13;4958400;28;20034;-37
2021/06/04 06:07:40;;;;;;;1.83;0.82;;;;;;;29.41;34.17;97092.38;4974934;28;20669;-37
2021/06/04 06:10:06;;;;;;;1.35;0.90;;;;;;;29.40;34.27;97095.97;4977250;28;20096;-38
2021/06/04 06:12:31;;;;;;;1.30;1.00;;;;;;;29.41;34.30;97092.38;4975951;28;20060;-35
2021/06/04 06:14:57;;;;;;;2.00;1.00;;;;;;;29.41;34.12;97092.38;4976717;28;20026;-38
2021/06/04 06:17:22;;;;;;;3.45;0.98;;;;;;;29.42;34.18;97102.00;4979909;28;20038;-42
2021/06/04 06:19:48;;;;;;;2.10;0.90;;;;;;;29.39;34.34;97101.34;4979420;28;20034;-36
2021/06/04 06:22:14;;;;;;;1.67;0.80;;;;;;;29.41;34.06;97102.94;4974337;28;20038;-35
2021/06/04 06:24:39;;;;;;;1.13;0.90;;;;;;;29.42;34.16;97104.66;4980034;28;20037;-35
2021/06/04 06:27:05;;;;;;;0.82;0.70;;;;;;;29.43;34.06;97108.97;4979491;28;20037;-38
2021/06/04 06:29:35;;;;;;;1.90;0.82;;;;;;;29.43;34.23;97108.97;4974829;28;20349;-33
2021/06/04 06:32:00;;;;;;;6.28;1.65;;;;;;;29.44;34.34;97110.66;4977021;28;20648;-39
2021/06/04 06:34:26;;;;;;;3.20;1.40;;;;;;;29.44;34.81;97123.00;4973111;28;20038;-38
2021/06/04 06:36:51;;;;;;;4.03;1.15;;;;;;;29.44;34.92;97110.66;4979931;28;20033;-33
2021/06/04 06:39:20;;;;;;;1.52;1.00;;;;;;;29.44;34.62;97129.16;4977409;28;20037;-34
2021/06/04 06:41:46;;;;;;;9.15;1.60;;;;;;;29.45;34.61;97130.84;4972898;28;20124;-33
2021/06/04 06:44:11;;;;;;;15.73;2.60;;;;;;;29.44;35.03;97123.88;4989471;28;20705;-35
2021/06/04 06:46:37;;;;;;;15.32;3.10;;;;;;;29.44;34.99;97123.88;4974493;28;20034;-34
2021/06/04 06:49:03;;;;;;;11.05;2.30;;;;;;;29.44;35.09;97131.78;4975595;28;20589;-39
2021/06/04 06:51:28;;;;;;;9.48;2.78;;;;;;;29.44;35.22;97131.78;4970997;28;20030;-36
2021/06/04 06:53:56;;;;;;;23.95;2.58;;;;;;;29.44;35.17;97131.78;4974616;28;20512;-37
2021/06/04 06:56:21;;;;;;;10.55;2.80;;;;;;;29.43;35.27;97132.75;4974320;28;20042;-35
2021/06/04 06:58:47;;;;;;;8.20;2.65;;;;;;;29.44;35.66;97139.72;4970458;28;20026;-37
2021/06/04 07:01:12;;;;;;;11.52;2.70;;;;;;;29.44;35.43;97141.50;4969365;28;20409;-36
2021/06/04 07:03:39;;;;;;;10.38;2.90;;;;;;;29.43;35.67;97138.00;4972235;28;20109;-34
2021/06/04 07:06:08;;;;;;;6.40;2.33;;;;;;;29.43;35.75;97140.66;4979713;28;20649;-34
2021/06/04 07:08:34;;;;;;;7.57;2.47;;;;;;;29.44;35.62;97139.72;4973579;28;20193;-34
2021/06/04 07:10:59;;;;;;;5.05;2.40;;;;;;;29.45;35.55;97140.56;4973284;28;20034;-34
2021/06/04 07:13:26;;;;;;;3.50;2.17;;;;;;;29.45;35.55;97145.84;4974826;28;20034;-34
2021/06/04 07:15:57;;;;;;;6.15;2.05;;;;;;;29.45;35.61;97146.69;4974591;28;20531;-39
2021/06/04 07:18:23;;;;;;;6.55;2.22;;;;;;;29.45;35.29;97151.13;4972896;28;20029;-37
2021/06/04 07:20:48;;;;;;;7.93;2.10;;;;;;;29.46;35.17;97152.81;4976314;28;20522;-40
2021/06/04 07:23:14;;;;;;;4.25;1.90;;;;;;;29.47;35.13;97149.22;4980049;28;20388;-36
2021/06/04 07:25:41;;;;;;;4.85;2.03;;;;;;;29.47;35.38;97149.22;4979063;28;20148;-35
2021/06/04 07:28:08;;;;;;;5.70;2.20;;;;;;;29.48;35.41;97145.63;4977258;28;20029;-40
2021/06/04 07:30:36;;;;;;;18.88;2.45;;;;;;;29.48;35.36;97146.50;4971519;28;20081;-31
2021/06/04 07:33:06;;;;;;;13.77;2.30;;;;;;;29.50;35.35;97150.81;4982854;28;20053;-33
2021/06/04 07:35:33;;;;;;;12.55;2.53;;;;;;;29.49;35.35;97144.72;4976558;28;20582;-34
2021/06/04 07:37:58;;;;;;;13.40;2.85;;;;;;;29.48;35.57;97150.91;4972293;28;21455;-36
2021/06/04 07:40:24;;;;;;;12.75;3.22;;;;;;;29.47;35.58;97143.94;4976972;28;20026;-37
2021/06/04 07:42:50;;;;;;;8.45;2.70;;;;;;;29.45;35.31;97149.31;4976089;28;20065;-36
2021/06/04 07:45:16;;;;;;;9.73;2.92;;;;;;;29.42;35.55;97153.94;4978196;28;20116;-33
2021/06/04 07:47:42;;;;;;;8.82;3.10;;;;;;;29.40;35.46;97146.13;4974220;28;20455;-32
2021/06/04 07:50:09;;;;;;;10.00;2.80;;;;;;;29.36;35.53;97141.16;4972033;28;20045;-34
2021/06/04 07:52:34;;;;;;;7.35;2.80;;;;;;;29.33;35.64;97137.75;4961726;28;20184;-35
2021/06/04 07:55:00;;;;;;;6.63;2.45;;;;;;;29.32;35.79;97138.69;4969046;28;20487;-36
2021/06/04 07:57:26;;;;;;;11.52;2.47;;;;;;;29.32;36.02;97135.19;4969625;28;20037;-37
2021/06/04 07:59:52;;;;;;;11.30;2.60;;;;;;;29.31;36.01;97133.50;4973605;28;20034;-35
2021/06/04 08:02:17;;;;;;;6.05;2.60;;;;;;;29.33;35.95;97131.63;4975620;28;20532;-37
2021/06/04 08:04:42;;;;;;;7.63;2.40;;;;;;;29.33;35.72;97126.34;4975424;28;20440;-37
2021/06/04 08:07:08;;;;;;;4.82;2.20;;;;;;;29.33;35.63;97132.47;4977778;28;20033;-36
2021/06/04 08:09:34;;;;;;;5.00;2.30;;;;;;;29.35;35.66;97135.00;4944314;28;20084;-33
2021/06/04 08:12:01;;;;;;;5.35;2.15;;;;;;;29.36;35.48;97134.06;4978004;28;20085;-38
2021/06/04 08:14:27;;;;;;;6.63;3.05;;;;;;;29.37;35.67;97135.75;4962198;28;20721;-36
2021/06/04 08:16:54;;;;;;;4.78;2.05;;;;;;;29.39;35.45;97138.28;4973488;28;20113;-40
2021/06/04 08:19:19;;;;;;;4.55;2.13;;;;;;;29.40;35.53;97132.09;4973167;28;20084;-36
2021/06/04 08:21:48;;;;;;;5.43;2.38;;;;;;;29.40;35.56;97135.56;4975828;28;20023;-40
2021/06/04 08:24:15;;;;;;;5.25;2.10;;;;;;;29.39;35.53;97131.22;4972182;28;20069;-38
2021/06/04 08:26:40;;;;;;;4.97;2.50;;;;;;;29.44;35.33;97133.56;4973755;28;20131;-38
2021/06/04 08:29:06;;;;;;;4.90;2.13;;;;;;;29.45;35.53;97136.13;4960707;28;20069;-38
2021/06/04 08:31:32;;;;;;;3.17;1.90;;;;;;;29.47;35.12;97133.38;4977556;28;20049;-37
2021/06/04 08:33:57;;;;;;;5.47;2.25;;;;;;;29.47;35.25;97134.25;4976369;28;20022;-40
2021/06/04 08:36:28;;;;;;;2.88;1.90;;;;;;;29.45;35.39;97125.56;4979901;28;20350;-38
2021/06/04 08:38:56;;;;;;;2.47;1.80;;;;;;;29.51;35.19;97134.91;4978195;28;20669;-36
2021/06/04 08:41:45;;;;;;;5.68;2.20;;;;;;;29.52;35.00;97138.41;4984178;28;20033;-40
2021/06/04 08:44:23;;;;;;;3.72;1.85;;;;;;;29.52;35.19;97122.56;4995303;28;20057;-36
2021/06/04 08:47:04;;;;;;;7.15;2.42;;;;;;;29.54;35.11;97126.81;4980801;28;20023;-37
2021/06/04 08:49:48;;;;;;;4.03;2.22;;;;;;;29.55;35.16;97125.84;4977402;28;20033;-32
2021/06/04 08:52:24;;;;;;;4.93;2.10;;;;;;;29.56;35.16;97116.16;4977246;28;20084;-34
2021/06/04 08:55:05;;;;;;;3.70;1.90;;;;;;;29.56;35.15;97121.44;4964793;28;20036;-34
2021/06/04 08:58:07;;;;;;;4.53;2.08;;;;;;;29.57;35.06;97118.69;4976266;28;20085;-39
2021/06/04 09:00:36;;;;;;;4.00;1.83;;;;;;;29.58;35.01;97119.53;4967710;28;20057;-38
2021/06/04 09:03:21;;;;;;;5.85;2.10;;;;;;;29.59;34.86;97126.50;4982154;28;20113;-33
2021/06/04 09:06:12;;;;;;;4.25;2.00;;;;;;;29.59;34.91;97119.44;4978246;28;20109;-37
2021/06/04 09:08:38;;;;;;;4.70;2.13;;;;;;;29.60;35.19;97117.66;4978712;28;20139;-34
2021/06/04 09:11:12;;;;;;;3.47;1.55;;;;;;;29.60;35.14;97118.50;4977821;28;20022;-34
2021/06/04 09:13:38;;;;;;;5.00;1.90;;;;;;;29.61;35.04;97114.06;4976432;28;20030;-37
2021/06/04 09:16:27;;;;;;;4.25;1.80;;;;;;;29.57;34.97;97113.41;4980593;28;20040;-36
2021/06/04 09:19:06;;;;;;;3.80;1.90;;;;;;;29.63;34.77;97117.44;4981014;28;20087;-36
2021/06/04 09:21:33;;;;;;;7.10;2.40;;;;;;;29.63;34.83;97112.16;4981138;28;20397;-31
2021/06/04 09:24:01;;;;;;;6.20;1.80;;;;;;;29.63;34.84;97117.44;4977129;28;20034;-35
2021/06/04 09:26:28;;;;;;;4.03;2.03;;;;;;;29.65;34.85;97112.91;4974811;28;20035;-35
2021/06/04 09:29:02;;;;;;;6.25;1.98;;;;;;;29.65;34.92;97110.28;4978610;28;20028;-36
2021/06/04 09:31:43;;;;;;;7.18;2.33;;;;;;;29.66;34.84;97117.25;4980160;28;20038;-38
2021/06/04 09:34:24;;;;;;;5.55;2.30;;;;;;;29.67;35.18;97116.28;4981591;28;20704;-36
2021/06/04 09:36:55;;;;;;;6.03;2.00;;;;;;;29.67;34.83;97113.66;4980824;28;21131;-39
2021/06/04 09:39:28;;;;;;;4.45;2.00;;;;;;;29.68;35.04;97112.69;4981915;28;20030;-34
2021/06/04 09:42:13;;;;;;;5.90;2.17;;;;;;;29.69;35.05;97110.91;4980625;28;20026;-37
2021/06/04 09:45:00;;;;;;;6.80;2.22;;;;;;;29.70;35.02;97107.31;4982249;28;20026;-37
2021/06/04 09:47:33;;;;;;;3.55;1.92;;;;;;;29.69;34.95;97095.94;4980712;28;20060;-37
2021/06/04 09:50:20;;;;;;;3.25;2.00;;;;;;;29.70;34.95;97100.25;4984180;28;20137;-36
2021/06/04 09:52:46;;;;;;;4.22;2.38;;;;;;;29.70;35.02;97100.25;4977877;28;20034;-35
2021/06/04 09:55:14;;;;;;;5.47;2.28;;;;;;;29.70;35.08;97087.06;4981018;28;20194;-37
2021/06/04 09:58:03;;;;;;;4.30;2.33;;;;;;;29.72;34.87;97087.78;4982023;28;20556;-32
2021/06/04 10:00:33;;;;;;;3.90;1.95;;;;;;;29.72;34.91;97093.06;4984721;28;20049;-35
2021/06/04 10:03:05;;;;;;;7.35;2.13;;;;;;;29.73;34.85;97086.88;4980357;28;20076;-38
2021/06/04 10:05:30;;;;;;;3.08;1.95;;;;;;;29.73;34.80;97086.88;4982444;28;20046;-34
2021/06/04 10:08:01;;;;;;;4.05;1.90;;;;;;;29.74;35.00;97085.06;4982602;28;20121;-36
2021/06/04 10:10:29;;;;;;;6.43;1.88;;;;;;;29.74;34.93;97082.41;4977747;28;20793;-38
2021/06/04 10:13:00;;;;;;;3.55;1.80;;;;;;;29.75;35.01;97088.56;4981327;28;20120;-36
2021/06/04 10:15:35;;;;;;;3.08;1.90;;;;;;;29.76;34.78;97084.97;4984595;28;20029;-41
2021/06/04 10:18:03;;;;;;;3.65;1.83;;;;;;;29.76;34.94;97091.09;4979413;28;20049;-39
2021/06/04 10:20:39;;;;;;;4.38;2.10;;;;;;;29.77;34.79;97091.94;4979535;28;20471;-41
2021/06/04 10:23:23;;;;;;;3.38;1.70;;;;;;;29.78;34.92;97089.19;4980367;28;20017;-40
2021/06/04 10:25:58;;;;;;;3.22;1.70;;;;;;;29.78;34.82;97097.13;4983778;28;20029;-40
2021/06/04 10:28:44;;;;;;;2.47;1.55;;;;;;;29.79;34.73;97092.69;4975389;28;20033;-37
2021/06/04 10:31:15;;;;;;;4.32;1.75;;;;;;;29.78;34.80;97099.75;4976770;28;20708;-35
2021/06/04 10:34:08;;;;;;;3.55;2.00;;;;;;;29.79;34.50;97093.53;4976491;28;20040;-40
2021/06/04 10:36:36;;;;;;;6.35;1.75;;;;;;;29.81;34.88;97093.44;4924471;28;20043;-34
2021/06/04 10:39:14;;;;;;;9.95;2.03;;;;;;;29.77;34.68;97078.72;4982882;28;20391;-36
2021/06/04 10:41:45;;;;;;;12.25;2.05;;;;;;;29.81;35.06;97086.34;4991038;28;20034;-33
2021/06/04 10:44:21;;;;;;;8.10;1.80;;;;;;;29.82;34.97;97087.19;4962298;28;20517;-32
2021/06/04 10:47:01;;;;;;;13.13;2.25;;;;;;;29.82;34.96;97084.53;4944667;28;21058;-33
2021/06/04 10:49:27;;;;;;;5.10;1.50;;;;;;;29.83;34.83;97091.53;4959786;28;20030;-36
2021/06/04 10:51:57;;;;;;;5.82;1.92;;;;;;;29.82;34.73;97088.03;4979006;28;20038;-36
2021/06/04 10:54:44;;;;;;;5.80;2.00;;;;;;;29.82;35.02;97079.25;4978193;28;20033;-37
2021/06/04 10:57:19;;;;;;;6.07;1.70;;;;;;;29.83;34.63;97092.38;4982217;28;20512;-35
2021/06/04 10:59:57;;;;;;;6.43;1.90;;;;;;;29.84;34.78;97080.88;4981732;28;20032;-38
2021/06/04 11:02:34;;;;;;;6.45;1.65;;;;;;;29.84;34.78;97087.94;4953823;28;20050;-39
2021/06/04 11:05:10;;;;;;;4.25;1.80;;;;;;;29.84;34.75;97077.38;4973303;28;20036;-38
2021/06/04 11:07:49;;;;;;;9.52;1.80;;;;;;;29.85;34.74;97079.06;4965299;28;20760;-38
2021/06/04 11:10:14;;;;;;;3.83;1.80;;;;;;;29.84;34.70;97072.97;4954932;28;20038;-37
2021/06/04 11:12:58;;;;;;;2.22;1.67;;;;;;;29.86;34.72;97075.47;4978870;28;20732;-37
2021/06/04 11:15:27;;;;;;;7.28;1.50;;;;;;;29.85;34.73;97068.50;4981534;28;20083;-35
2021/06/04 11:17:53;;;;;;;3.72;1.58;;;;;;;29.86;34.90;97075.47;4981308;28;20133;-36
2021/06/04 11:20:39;;;;;;;3.50;1.90;;;;;;;29.87;34.79;97071.91;4979752;28;20038;-35
2021/06/04 11:23:12;;;;;;;8.00;2.05;;;;;;;29.84;34.81;97072.09;4961947;28;20032;-34
2021/06/04 11:25:52;;;;;;;4.88;2.10;;;;;;;29.89;35.02;97069.13;4966020;28;20096;-36
2021/06/04 11:28:33;;;;;;;10.35;1.92;;;;;;;29.90;35.08;97062.94;4965895;28;20059;-41
2021/06/04 11:31:00;;;;;;;7.47;2.22;;;;;;;29.90;34.89;97065.56;4973927;28;20054;-33
2021/06/04 11:33:30;;;;;;;7.03;2.08;;;;;;;29.90;35.12;97061.13;4976175;28;20148;-36
2021/06/04 11:36:11;;;;;;;13.85;2.03;;;;;;;29.91;34.92;97052.25;4980287;28;20567;-39
2021/06/04 11:38:44;;;;;;;6.28;2.33;;;;;;;29.92;35.21;97058.38;4979851;28;20033;-37
2021/06/04 11:41:33;;;;;;;5.78;2.20;;;;;;;29.92;35.74;97048.66;4964593;28;20026;-37
2021/06/04 11:44:31;;;;;;;5.97;2.13;;;;;;;29.92;35.94;97051.31;4979878;28;20072;-33
2021/06/04 11:47:15;;;;;;;8.73;2.50;;;;;;;29.92;36.49;97040.75;4977863;28;20022;-38
2021/06/04 11:49:52;;;;;;;6.78;2.40;;;;;;;29.92;36.20;97042.53;4977793;28;20123;-38
2021/06/04 11:52:26;;;;;;;7.78;2.42;;;;;;;29.93;36.41;97038.94;4975091;28;20069;-37